Time;durP1;ratioP1;P1;durP2;ratioP2;P2;SDS_P1;SDS_P2;PMS_P1;PMS_P2;Temp;Humidity;BMP_temperature;BMP_pressure;BME280_temperature;BME280_humidity;BME280_pressure;Samples;Min_cycle;Max_cycle;Signal;HPM_P1;HPM_P2
2022/05/27 00:00:24;;;;;;;0.88;0.88;;;;;;;23.06;43.38;101152.72;5032463;28;20057;-62
2022/05/27 00:02:50;;;;;;;1.35;1.13;;;;;;;23.07;43.13;101148.34;4999797;28;20098;-63
2022/05/27 00:05:17;;;;;;;1.17;1.15;;;;;;;23.07;42.91;101137.84;5016320;28;20044;-62
2022/05/27 00:07:43;;;;;;;0.95;0.90;;;;;;;23.08;43.45;101139.59;4998920;28;20034;-62
2022/05/27 00:10:10;;;;;;;1.10;1.00;;;;;;;22.99;43.22;101130.81;5017145;28;20429;-62
2022/05/27 00:12:36;;;;;;;0.60;0.60;;;;;;;23.01;42.88;101115.94;5015164;28;20025;-62
2022/05/27 00:15:03;;;;;;;0.95;0.95;;;;;;;23.02;43.26;101120.31;5011919;28;20124;-62
2022/05/27 00:17:29;;;;;;;1.25;0.90;;;;;;;23.04;43.29;101123.81;5027569;28;20045;-59
2022/05/27 00:19:54;;;;;;;1.80;1.27;;;;;;;23.02;43.25;101115.06;5014907;28;20037;-62
2022/05/27 00:22:19;;;;;;;1.85;1.15;;;;;;;23.00;43.54;101101.03;5006473;28;20260;-62
2022/05/27 00:24:45;;;;;;;3.22;1.67;;;;;;;23.02;43.31;101099.31;5031382;28;20083;-62
2022/05/27 00:27:10;;;;;;;3.25;0.80;;;;;;;23.03;43.19;101106.31;5031525;28;20458;-62
2022/05/27 00:29:36;;;;;;;1.17;1.08;;;;;;;23.03;43.35;101111.56;5032117;28;20046;-62
2022/05/27 00:32:03;;;;;;;1.58;1.30;;;;;;;23.02;43.56;101109.81;5015457;28;20033;-62
2022/05/27 00:34:28;;;;;;;1.10;1.00;;;;;;;23.03;43.62;101127.31;5016446;28;20040;-63
2022/05/27 00:36:53;;;;;;;1.05;1.02;;;;;;;23.02;43.33;101119.41;5015259;28;20128;-62
2022/05/27 00:39:19;;;;;;;1.33;1.20;;;;;;;22.86;43.03;101092.22;5014984;28;21625;-62
2022/05/27 00:41:44;;;;;;;1.85;1.00;;;;;;;23.02;43.07;101125.56;5016549;28;20037;-62
2022/05/27 00:44:10;;;;;;;1.65;1.08;;;;;;;23.00;43.22;101127.31;4999540;28;20495;-62
2022/05/27 00:46:36;;;;;;;1.40;1.15;;;;;;;22.99;43.38;101128.19;4998598;28;20478;-62
2022/05/27 00:49:08;;;;;;;1.67;1.08;;;;;;;23.00;43.45;101135.19;5015582;28;20072;-62
2022/05/27 00:51:48;;;;;;;1.58;1.30;;;;;;;23.00;43.26;101132.56;4998552;28;20033;-61
2022/05/27 00:54:16;;;;;;;1.02;1.02;;;;;;;23.02;43.20;101136.06;4998433;28;20037;-62
2022/05/27 00:56:44;;;;;;;2.60;1.00;;;;;;;23.02;43.25;101143.97;5006230;28;20096;-62
2022/05/27 00:59:18;;;;;;;5.57;1.20;;;;;;;23.00;43.25;101132.56;5029159;28;20056;-61
2022/05/27 01:01:44;;;;;;;;;;;;;;;23.02;43.38;101130.81;5014131;28;20030;-62
2022/05/27 01:04:09;;;;;;;1.40;1.30;;;;;;;23.01;43.07;101131.69;5007851;28;19964;-62
2022/05/27 01:06:35;;;;;;;1.73;1.27;;;;;;;22.99;43.29;101136.06;5012269;28;20039;-62
2022/05/27 01:09:00;;;;;;;2.17;1.10;;;;;;;22.95;43.23;101129.03;5034371;28;20025;-62
2022/05/27 01:11:28;;;;;;;1.15;1.05;;;;;;;23.01;43.12;101141.31;4997580;28;20037;-62
2022/05/27 01:14:36;;;;;;;2.88;2.33;;;;;;;22.99;43.20;101136.06;5028504;28;20029;-62
2022/05/27 01:17:14;;;;;;;0.80;0.80;;;;;;;22.98;43.32;101155.31;5011937;28;20140;-63
2022/05/27 01:23:11;;;;;;;1.85;1.75;;;;;;;22.85;43.26;101132.47;5029920;28;20043;-62
2022/05/27 01:25:43;;;;;;;1.40;1.30;;;;;;;22.97;43.55;101143.06;5023804;28;20030;-62
2022/05/27 01:28:18;;;;;;;1.35;1.25;;;;;;;22.97;43.17;101132.53;5008116;28;20029;-62
2022/05/27 01:30:54;;;;;;;3.13;1.10;;;;;;;22.95;43.23;101118.53;5011402;28;20030;-62
2022/05/27 01:33:28;;;;;;;2.28;1.10;;;;;;;22.97;43.15;101127.28;4991459;28;20083;-62
2022/05/27 01:36:12;;;;;;;1.45;1.15;;;;;;;22.97;43.13;101148.31;4993196;28;20032;-62
2022/05/27 01:38:38;;;;;;;;;;;;;;;22.97;43.11;101137.81;5011508;28;20029;-63
2022/05/27 01:41:11;;;;;;;1.47;1.10;;;;;;;22.97;43.54;101156.19;5027180;28;19913;-62
2022/05/27 01:43:39;;;;;;;2.25;1.40;;;;;;;22.97;43.45;101166.69;5010408;28;20033;-62
2022/05/27 01:46:16;;;;;;;4.88;1.08;;;;;;;22.97;43.38;101164.06;5028680;28;20367;-63
2022/05/27 01:48:56;;;;;;;1.42;1.33;;;;;;;22.96;43.21;101146.53;4994563;28;20045;-63
2022/05/27 01:51:21;;;;;;;1.40;1.30;;;;;;;22.85;43.53;101138.59;5009798;28;20064;-62
2022/05/27 01:53:50;;;;;;;1.30;1.20;;;;;;;22.94;43.15;101132.53;5021908;28;20053;-62
2022/05/27 01:56:23;;;;;;;2.42;1.17;;;;;;;22.92;43.22;101134.28;5024351;28;20030;-62
2022/05/27 01:58:53;;;;;;;0.77;0.75;;;;;;;22.95;43.27;101155.31;5021915;28;20458;-62
2022/05/27 02:01:22;;;;;;;1.08;0.95;;;;;;;22.92;43.31;101144.78;5009630;28;20102;-62
2022/05/27 02:04:01;;;;;;;1.17;1.10;;;;;;;22.94;43.71;101148.28;5012842;28;20041;-62
2022/05/27 02:06:56;;;;;;;1.63;1.33;;;;;;;22.95;43.09;101138.66;5007214;28;20037;-62
2022/05/27 02:09:30;;;;;;;1.70;1.17;;;;;;;22.93;43.08;101136.03;4995227;28;20037;-61
2022/05/27 02:12:02;;;;;;;2.25;1.73;;;;;;;22.94;43.00;101153.53;5005574;28;20467;-62
2022/05/27 02:14:42;;;;;;;1.65;1.55;;;;;;;22.79;43.20;101122.78;5010036;28;20030;-62
2022/05/27 02:17:12;;;;;;;1.10;1.00;;;;;;;22.93;43.11;101149.16;5011335;28;20030;-62
2022/05/27 02:19:52;;;;;;;0.95;0.95;;;;;;;22.93;43.40;101141.28;5015692;28;20072;-62
2022/05/27 02:22:41;;;;;;;1.15;1.00;;;;;;;22.92;43.36;101139.53;4995169;28;20073;-62
2022/05/27 02:25:18;;;;;;;2.03;1.10;;;;;;;22.93;42.99;101145.63;5010110;28;20029;-62
2022/05/27 02:27:51;;;;;;;1.58;1.25;;;;;;;22.88;43.20;101138.59;5008346;28;20033;-62
2022/05/27 02:30:18;;;;;;;1.20;1.08;;;;;;;22.92;43.18;101144.78;5006341;28;20454;-62
2022/05/27 02:35:59;;;;;;;1.13;1.08;;;;;;;22.90;43.00;101151.75;5022404;28;20032;-62
2022/05/27 02:38:26;;;;;;;3.72;1.48;;;;;;;22.91;43.19;101148.28;5002242;28;20021;-62
2022/05/27 02:41:00;;;;;;;1.42;1.25;;;;;;;22.90;42.92;101157.88;4989837;28;20120;-62
2022/05/27 02:43:49;;;;;;;2.42;1.58;;;;;;;22.91;42.90;101158.78;5008183;28;20044;-62
2022/05/27 02:46:43;;;;;;;2.13;1.23;;;;;;;22.89;42.77;101161.38;5015702;28;20117;-62
2022/05/27 02:49:13;;;;;;;3.67;1.25;;;;;;;22.90;43.26;101172.78;4989987;28;20117;-62
2022/05/27 02:51:56;;;;;;;1.45;1.27;;;;;;;22.89;42.69;101163.13;5026694;28;21230;-63
2022/05/27 02:54:32;;;;;;;5.68;1.48;;;;;;;22.89;42.90;101165.75;5026258;28;20041;-62
2022/05/27 02:57:19;;;;;;;3.50;1.48;;;;;;;22.89;42.81;101160.50;5007755;28;20080;-62
2022/05/27 02:59:45;;;;;;;1.25;1.20;;;;;;;22.87;42.92;101162.25;5023863;28;20062;-62
2022/05/27 03:02:13;;;;;;;1.10;1.00;;;;;;;22.88;43.20;101164.88;5009824;28;20051;-63
2022/05/27 03:04:41;;;;;;;4.07;1.42;;;;;;;22.87;42.54;101162.25;5009025;28;20604;-63
2022/05/27 03:07:11;;;;;;;1.40;1.30;;;;;;;22.89;42.63;101176.28;5009462;28;20506;-62
2022/05/27 03:09:37;;;;;;;4.32;1.58;;;;;;;22.88;43.03;101169.25;5030996;28;20033;-62
2022/05/27 03:12:19;;;;;;;1.23;1.13;;;;;;;22.86;42.97;101160.50;5022940;28;20459;-62
2022/05/27 03:14:57;;;;;;;1.33;1.25;;;;;;;22.88;43.13;101169.25;5020746;28;20120;-62
2022/05/27 03:17:30;;;;;;;1.88;1.60;;;;;;;22.86;42.49;101165.75;4989797;28;20401;-61
2022/05/27 03:20:05;;;;;;;1.40;1.02;;;;;;;22.87;42.94;101172.75;5004562;28;20030;-62
2022/05/27 03:22:34;;;;;;;1.75;1.35;;;;;;;22.46;42.77;101104.19;5005024;28;20356;-62
2022/05/27 03:25:27;;;;;;;2.58;1.20;;;;;;;22.87;42.41;101178.00;5029069;28;20068;-62
2022/05/27 03:27:57;;;;;;;1.13;1.10;;;;;;;22.88;42.55;101185.03;5028158;28;20029;-62
2022/05/27 03:31:15;;;;;;;1.40;1.30;;;;;;;22.88;42.79;101185.03;5014760;28;20041;-62
2022/05/27 03:34:05;;;;;;;1.27;1.17;;;;;;;22.89;42.76;101171.03;4966929;28;20046;-62
2022/05/27 03:36:44;;;;;;;2.53;1.00;;;;;;;22.89;42.92;101173.66;5008388;28;20033;-62
2022/05/27 03:39:29;;;;;;;4.35;1.45;;;;;;;22.90;42.90;101183.28;5031991;28;20596;-62
2022/05/27 03:41:55;;;;;;;;;;;;;;;22.91;42.39;101190.28;5032654;28;20642;-62
2022/05/27 03:44:27;;;;;;;1.30;1.20;;;;;;;22.92;42.75;101192.06;5011355;28;20420;-62
2022/05/27 03:46:57;;;;;;;2.60;1.25;;;;;;;22.92;42.52;101192.06;5001157;28;20029;-62
2022/05/27 03:49:22;;;;;;;2.40;1.50;;;;;;;22.90;42.67;101193.78;5007047;28;20026;-62
2022/05/27 03:52:20;;;;;;;2.88;1.20;;;;;;;22.92;42.42;101197.31;5012859;28;20030;-62
2022/05/27 03:54:48;;;;;;;1.10;1.10;;;;;;;22.93;42.38;101188.56;5000045;28;20505;-62
2022/05/27 03:57:13;;;;;;;1.52;1.30;;;;;;;22.91;42.64;101195.53;4996661;28;20112;-63
2022/05/27 03:59:39;;;;;;;1.25;1.17;;;;;;;22.82;42.25;101163.97;5030286;28;20157;-62
2022/05/27 04:02:07;;;;;;;4.95;1.55;;;;;;;22.92;42.62;101197.31;4994866;28;20112;-62
2022/05/27 04:04:36;;;;;;;0.98;0.93;;;;;;;22.91;42.13;101190.28;5031593;28;20032;-63
2022/05/27 04:07:04;;;;;;;1.15;1.15;;;;;;;22.93;42.60;101188.56;5012309;28;20462;-62
2022/05/27 04:09:30;;;;;;;1.08;1.05;;;;;;;22.97;42.50;101195.59;5019186;28;20044;-62
2022/05/27 04:11:59;;;;;;;1.15;1.13;;;;;;;23.00;42.09;101185.09;5016629;28;20037;-62
2022/05/27 04:14:24;;;;;;;1.15;1.10;;;;;;;23.01;42.42;101181.59;5016624;28;20037;-62
2022/05/27 04:16:49;;;;;;;3.38;1.48;;;;;;;23.01;42.34;101180.72;5014355;28;20454;-62
2022/05/27 04:19:18;;;;;;;3.35;1.23;;;;;;;22.88;42.13;101169.25;5033111;28;20036;-62
2022/05/27 04:21:44;;;;;;;2.20;1.20;;;;;;;23.00;42.42;101199.97;5006970;28;20128;-62
2022/05/27 04:24:10;;;;;;;4.28;1.30;;;;;;;22.98;42.08;101202.59;5015976;28;20112;-62
2022/05/27 04:26:40;;;;;;;2.72;1.73;;;;;;;22.98;41.96;101192.09;5015382;28;20183;-62
2022/05/27 04:29:06;;;;;;;1.77;1.13;;;;;;;22.95;41.79;101185.91;5013993;28;20049;-62
2022/05/27 04:31:34;;;;;;;1.10;0.85;;;;;;;22.97;42.13;101194.69;5014523;28;20030;-63
2022/05/27 04:33:59;;;;;;;4.90;1.15;;;;;;;22.96;41.99;101193.81;5032820;28;20041;-61
2022/05/27 04:36:27;;;;;;;1.63;1.52;;;;;;;22.95;42.28;101180.66;5015888;28;20289;-60
2022/05/27 04:38:52;;;;;;;1.75;1.65;;;;;;;22.95;42.36;101197.31;5032659;28;20065;-61
2022/05/27 04:41:18;;;;;;;3.88;2.03;;;;;;;22.96;42.47;101185.06;5013500;28;20071;-61
2022/05/27 04:43:43;;;;;;;1.38;0.95;;;;;;;22.98;41.85;101192.09;5014369;28;20079;-60
2022/05/27 04:46:11;;;;;;;3.75;1.33;;;;;;;22.95;41.99;101186.81;5015108;28;20120;-60
2022/05/27 04:48:39;;;;;;;1.85;1.63;;;;;;;22.97;42.11;101190.34;5031456;28;20368;-61
2022/05/27 04:51:05;;;;;;;1.27;1.23;;;;;;;22.97;42.45;101195.59;5016465;28;20064;-60
2022/05/27 04:53:36;;;;;;;4.38;1.52;;;;;;;22.98;42.37;101192.09;5015928;28;20037;-60
2022/05/27 04:56:04;;;;;;;1.00;1.00;;;;;;;22.96;41.99;101199.09;5007858;28;20084;-61
2022/05/27 04:58:30;;;;;;;1.80;1.20;;;;;;;22.96;42.06;101188.56;5016198;28;20300;-60
2022/05/27 05:00:59;;;;;;;3.38;1.85;;;;;;;22.99;42.14;101206.97;5012210;28;20398;-60
2022/05/27 05:03:27;;;;;;;3.58;1.35;;;;;;;22.94;41.94;101198.19;5033297;28;20048;-61
2022/05/27 05:05:52;;;;;;;2.55;1.30;;;;;;;22.98;41.96;101197.34;5013716;28;20033;-61
2022/05/27 05:08:17;;;;;;;1.20;1.10;;;;;;;22.98;41.75;101213.09;5030868;28;20033;-61
2022/05/27 05:10:43;;;;;;;2.23;1.30;;;;;;;22.98;42.30;101205.22;5033606;28;20477;-61
2022/05/27 05:13:08;;;;;;;2.05;1.42;;;;;;;22.97;41.79;101200.84;5014871;28;20041;-61
2022/05/27 05:15:34;;;;;;;3.45;1.05;;;;;;;22.96;41.60;101199.09;4998204;28;20463;-61
2022/05/27 05:18:05;;;;;;;4.70;1.30;;;;;;;22.98;41.97;101202.59;5015232;28;20390;-61
2022/05/27 05:20:34;;;;;;;4.80;1.15;;;;;;;22.99;42.27;101204.34;5014014;28;20025;-60
2022/05/27 05:23:03;;;;;;;2.42;1.20;;;;;;;22.99;42.34;101204.34;5015122;28;20494;-60
2022/05/27 05:25:28;;;;;;;1.50;0.88;;;;;;;23.00;41.98;101189.47;4997560;28;20258;-61
2022/05/27 05:27:54;;;;;;;3.28;1.33;;;;;;;22.97;42.18;101195.59;5014573;28;20033;-61
2022/05/27 05:30:23;;;;;;;1.40;1.30;;;;;;;22.98;41.93;101202.59;5013501;28;20041;-61
2022/05/27 05:32:48;;;;;;;1.00;1.00;;;;;;;23.00;41.77;101216.63;4997316;28;20029;-60
2022/05/27 05:35:14;;;;;;;2.85;1.17;;;;;;;22.99;41.98;101204.34;5012724;28;20036;-61
2022/05/27 05:37:43;;;;;;;3.25;1.30;;;;;;;22.99;42.08;101206.97;5014497;28;20033;-60
2022/05/27 05:40:10;;;;;;;0.82;0.82;;;;;;;23.00;41.78;101211.38;5025580;28;20033;-61
2022/05/27 05:42:39;;;;;;;1.35;1.20;;;;;;;23.00;41.60;101208.75;5021453;28;20035;-61
2022/05/27 05:45:05;;;;;;;1.20;1.10;;;;;;;22.98;41.99;101207.84;5014167;28;20465;-61
2022/05/27 05:50:04;;;;;;;4.80;1.38;;;;;;;22.99;41.93;101209.59;5048355;28;20053;-52
2022/05/27 05:52:29;;;;;;;10.88;1.90;;;;;;;22.86;41.36;101192.00;5035034;28;20039;-53
2022/05/27 05:54:54;;;;;;;6.30;1.65;;;;;;;23.00;41.67;101221.88;5050168;28;20083;-55
2022/05/27 05:57:20;;;;;;;1.17;0.90;;;;;;;22.99;41.59;101220.13;5017765;28;20025;-55
2022/05/27 05:59:45;;;;;;;3.78;1.20;;;;;;;22.97;41.43;101211.34;5032895;28;20083;-51
2022/05/27 06:02:11;;;;;;;1.98;1.20;;;;;;;23.01;41.52;101223.63;5032630;28;20029;-53
2022/05/27 06:04:37;;;;;;;2.03;1.27;;;;;;;23.00;41.71;101227.13;5033979;28;20043;-53
2022/05/27 06:07:02;;;;;;;3.17;1.55;;;;;;;23.00;41.47;101227.13;5034626;28;20025;-54
2022/05/27 06:09:28;;;;;;;0.77;0.77;;;;;;;23.00;41.37;101221.88;5033884;28;20064;-54
2022/05/27 06:11:54;;;;;;;1.63;1.52;;;;;;;23.02;41.53;101229.75;5050374;28;20037;-53
2022/05/27 06:14:20;;;;;;;1.58;1.48;;;;;;;23.00;41.64;101221.88;5029200;28;20033;-52
2022/05/27 06:16:45;;;;;;;4.03;1.45;;;;;;;23.01;41.35;101223.63;5016462;28;20442;-54
2022/05/27 06:19:11;;;;;;;1.45;1.33;;;;;;;23.02;41.60;101230.63;5016136;28;20040;-53
2022/05/27 06:21:36;;;;;;;2.25;1.20;;;;;;;23.00;41.24;101227.13;5016949;28;20128;-53
2022/05/27 06:24:03;;;;;;;1.55;1.42;;;;;;;23.02;41.38;101230.63;5047499;28;20044;-52
2022/05/27 06:26:31;;;;;;;1.52;1.25;;;;;;;22.98;41.14;101223.59;5014774;28;20047;-56
2022/05/27 06:34:27;;;;;;;2.83;1.20;;;;;;;23.00;41.23;101221.88;5049379;28;20043;-57
2022/05/27 06:36:58;;;;;;;1.08;1.00;;;;;;;22.95;41.27;101223.59;5031512;28;20033;-52
2022/05/27 06:39:27;;;;;;;1.23;1.13;;;;;;;22.94;41.43;101216.56;5011226;28;20037;-54
2022/05/27 06:41:52;;;;;;;0.70;0.70;;;;;;;23.01;41.22;101228.88;5027794;28;20052;-51
2022/05/27 06:44:18;;;;;;;0.90;0.90;;;;;;;22.99;41.36;101228.00;5033763;28;20033;-54
2022/05/27 06:46:44;;;;;;;1.00;1.00;;;;;;;23.02;41.72;101237.63;5032963;28;20049;-54
2022/05/27 06:49:09;;;;;;;0.90;0.90;;;;;;;23.00;41.31;101221.88;5032202;28;20033;-53
2022/05/27 06:51:36;;;;;;;1.67;1.10;;;;;;;23.01;41.55;101222.72;5028042;28;20037;-56
2022/05/27 06:54:02;;;;;;;1.20;1.15;;;;;;;23.01;41.28;101222.72;5017388;28;20053;-50
2022/05/27 06:56:28;;;;;;;0.88;0.88;;;;;;;22.99;41.56;101220.13;5032254;28;20078;-53
2022/05/27 06:58:53;;;;;;;1.25;1.13;;;;;;;22.93;41.00;101208.66;5023727;28;20040;-52
2022/05/27 07:01:19;;;;;;;2.60;1.05;;;;;;;23.00;41.43;101227.13;5017950;28;20037;-56
2022/05/27 07:03:44;;;;;;;1.50;1.10;;;;;;;23.01;41.40;101223.63;5015342;28;20048;-56
2022/05/27 07:06:16;;;;;;;1.00;0.98;;;;;;;23.01;41.17;101222.72;5035890;28;20035;-53
2022/05/27 07:08:49;;;;;;;2.65;1.30;;;;;;;23.01;41.13;101217.47;5035499;28;20082;-57
2022/05/27 07:11:14;;;;;;;1.45;1.20;;;;;;;23.02;40.88;101217.50;5021662;28;20044;-54
2022/05/27 07:13:55;;;;;;;1.20;1.10;;;;;;;23.02;41.49;101217.50;5037502;28;20389;-56
2022/05/27 07:16:44;;;;;;;1.63;1.52;;;;;;;23.02;41.51;101219.25;5022440;28;20021;-56
2022/05/27 07:19:19;;;;;;;1.20;1.10;;;;;;;23.01;41.24;101218.38;5034798;28;20037;-54
2022/05/27 07:21:44;;;;;;;;;;;;;;;23.01;41.08;101218.38;5036240;28;20033;-54
2022/05/27 07:24:18;;;;;;;1.30;1.02;;;;;;;23.02;40.85;101209.63;5019808;28;19913;-57
2022/05/27 07:26:45;;;;;;;0.88;0.88;;;;;;;23.02;41.34;101207.00;5037201;28;20067;-57
2022/05/27 07:29:11;;;;;;;6.07;1.88;;;;;;;23.01;40.88;101207.88;5017765;28;20033;-53
2022/05/27 07:31:37;;;;;;;1.40;1.13;;;;;;;23.02;41.35;101199.13;5019739;28;20115;-55
2022/05/27 07:34:03;;;;;;;1.05;0.68;;;;;;;23.02;41.47;101209.63;5040723;28;20029;-55
2022/05/27 07:36:29;;;;;;;0.95;0.95;;;;;;;23.00;40.69;101200.84;5031952;28;20487;-55
2022/05/27 07:38:54;;;;;;;1.10;1.05;;;;;;;23.01;41.27;101192.09;5053044;28;20124;-55
2022/05/27 07:41:21;;;;;;;1.40;1.30;;;;;;;23.00;41.47;101203.47;5032446;28;20393;-53
2022/05/27 07:43:47;;;;;;;1.13;1.13;;;;;;;22.99;41.07;101204.34;5037041;28;20033;-53
2022/05/27 07:46:14;;;;;;;1.45;1.20;;;;;;;22.98;41.19;101207.84;5036863;28;20037;-55
2022/05/27 07:48:39;;;;;;;1.50;1.35;;;;;;;22.98;40.96;101213.09;5019336;28;20029;-58
2022/05/27 07:51:05;;;;;;;1.42;1.27;;;;;;;23.00;41.04;101211.38;5036962;28;20029;-55
2022/05/27 07:53:31;;;;;;;2.63;1.42;;;;;;;22.99;41.25;101209.59;5035126;28;20026;-58
2022/05/27 07:55:56;;;;;;;4.03;1.25;;;;;;;23.01;41.25;101193.84;5019703;28;20423;-56
2022/05/27 07:58:21;;;;;;;5.82;1.50;;;;;;;22.98;40.69;101186.84;5035973;28;20504;-54
2022/05/27 08:00:47;;;;;;;1.35;0.95;;;;;;;23.00;41.35;101190.34;5015794;28;20534;-56
2022/05/27 08:03:14;;;;;;;4.28;1.45;;;;;;;22.97;41.06;101198.22;5037084;28;20025;-53
2022/05/27 08:05:40;;;;;;;4.45;1.20;;;;;;;23.01;40.64;101194.72;5029170;28;20061;-55
2022/05/27 08:08:06;;;;;;;0.98;0.98;;;;;;;23.01;40.96;101194.72;5038918;28;20052;-55
2022/05/27 08:10:33;;;;;;;3.10;1.58;;;;;;;23.00;40.62;101199.97;5033182;28;20021;-55
2022/05/27 08:13:00;;;;;;;1.60;1.50;;;;;;;22.93;40.84;101192.91;5060839;28;20083;-53
2022/05/27 08:15:26;;;;;;;3.95;1.67;;;;;;;23.01;40.78;101191.22;5033347;28;20036;-55
2022/05/27 08:17:51;;;;;;;1.25;1.15;;;;;;;23.01;41.18;101196.47;5035771;28;20367;-54
2022/05/27 08:20:22;;;;;;;2.33;1.30;;;;;;;23.01;40.91;101189.47;5036107;28;20120;-50
2022/05/27 08:22:49;;;;;;;2.67;1.30;;;;;;;23.01;40.84;101184.22;5028387;28;20120;-49
2022/05/27 08:25:15;;;;;;;1.48;1.05;;;;;;;23.01;40.67;101186.84;5036279;28;20531;-53
2022/05/27 08:27:40;;;;;;;4.68;1.10;;;;;;;23.02;40.87;101188.63;5028718;28;20041;-54
2022/05/27 08:30:10;;;;;;;1.17;1.10;;;;;;;23.02;40.57;101193.88;5018322;28;20029;-53
2022/05/27 08:32:35;;;;;;;1.25;1.15;;;;;;;23.01;40.79;101206.97;5032141;28;20402;-54
2022/05/27 08:40:28;;;;;;;1.10;0.90;;;;;;;22.99;40.87;101206.97;5057760;28;20472;-51
2022/05/27 08:43:02;;;;;;;2.93;1.47;;;;;;;22.96;40.49;101209.59;5052786;28;20068;-58
2022/05/27 08:45:37;;;;;;;1.88;1.45;;;;;;;22.99;41.10;101204.34;5016831;28;20021;-55
2022/05/27 08:48:10;;;;;;;0.98;0.95;;;;;;;22.97;40.58;101200.84;5035849;28;20036;-51
2022/05/27 08:50:38;;;;;;;1.70;1.08;;;;;;;22.99;40.97;101204.34;5030666;28;20112;-53
2022/05/27 08:53:22;;;;;;;1.85;1.55;;;;;;;22.99;40.44;101193.84;5053644;28;20500;-50
2022/05/27 09:01:31;;;;;;;1.20;1.10;;;;;;;23.01;40.64;101192.09;5037760;28;20082;-53
2022/05/27 09:04:10;;;;;;;0.90;0.90;;;;;;;22.95;41.00;101192.06;5035877;28;20029;-54
2022/05/27 09:06:40;;;;;;;1.80;1.35;;;;;;;23.02;40.60;101204.38;5030108;28;20041;-52
2022/05/27 09:09:07;;;;;;;1.10;1.00;;;;;;;23.03;40.92;101194.72;5030878;28;20072;-52
2022/05/27 09:11:50;;;;;;;1.23;1.13;;;;;;;23.03;40.31;101200.88;5046693;28;20481;-53
2022/05/27 09:14:31;;;;;;;3.03;1.27;;;;;;;23.02;40.92;101196.50;5029525;28;20036;-51
2022/05/27 09:17:00;;;;;;;1.27;1.17;;;;;;;23.02;40.31;101207.00;5034891;28;20025;-58
2022/05/27 09:19:34;;;;;;;1.13;1.05;;;;;;;23.02;40.48;101203.47;5035432;28;20055;-59
2022/05/27 09:22:29;;;;;;;3.15;1.30;;;;;;;23.03;40.85;101216.63;5051372;28;20079;-59
2022/05/27 09:25:20;;;;;;;2.63;1.33;;;;;;;23.01;40.50;101209.59;5042445;28;20091;-60
2022/05/27 09:27:58;;;;;;;4.78;1.23;;;;;;;23.07;40.73;101211.41;5035487;28;20041;-52
2022/05/27 09:30:26;;;;;;;4.75;1.50;;;;;;;23.07;40.88;101211.41;5030585;28;20025;-52
2022/05/27 09:32:58;;;;;;;1.45;1.35;;;;;;;23.09;40.87;101220.16;5024392;28;20404;-54
2022/05/27 09:35:26;;;;;;;1.85;1.55;;;;;;;23.13;40.66;101224.56;5013707;28;20534;-59
2022/05/27 09:37:54;;;;;;;2.65;1.20;;;;;;;23.16;40.53;101220.19;5052020;28;20415;-60
2022/05/27 09:40:28;;;;;;;4.38;1.45;;;;;;;23.16;40.53;101217.56;5012183;28;20028;-54
2022/05/27 09:42:57;;;;;;;;;;;;;;;23.24;41.05;101215.03;5036317;28;20373;-54
2022/05/27 09:45:24;;;;;;;10.27;1.00;;;;;;;23.24;40.88;101207.16;5016830;28;20317;-45
2022/05/27 09:47:51;;;;;;;2.75;1.50;;;;;;;23.25;40.55;101201.03;5018178;28;20131;-51
2022/05/27 09:50:26;;;;;;;3.10;1.20;;;;;;;23.30;41.03;101220.31;5051842;28;20039;-48
2022/05/27 09:52:57;;;;;;;3.50;1.58;;;;;;;23.37;40.77;101230.88;5048974;28;20029;-45
2022/05/27 09:55:27;;;;;;;1.50;1.40;;;;;;;23.36;40.76;101231.75;5009296;28;20033;-46
2022/05/27 09:58:01;;;;;;;1.77;1.60;;;;;;;23.33;40.57;101246.63;5049730;28;20088;-45
2022/05/27 10:00:53;;;;;;;5.47;2.15;;;;;;;23.36;40.51;101244.88;5032332;28;20093;-58
2022/05/27 10:03:33;;;;;;;3.25;2.42;;;;;;;22.26;38.57;101227.31;5027615;28;20036;-54
2022/05/27 10:06:10;;;;;;;4.88;2.08;;;;;;;21.71;38.80;101245.91;4999325;28;20490;-53
2022/05/27 10:08:45;;;;;;;5.18;2.88;;;;;;;21.40;39.14;101235.00;5018689;28;20083;-56
2022/05/27 10:11:20;;;;;;;2.97;2.53;;;;;;;21.20;38.34;101240.84;5037039;28;20025;-52
2022/05/27 10:13:48;;;;;;;5.80;1.90;;;;;;;21.18;38.24;101226.84;5018279;28;20032;-50
2022/05/27 10:16:22;;;;;;;5.07;2.65;;;;;;;21.10;36.54;101233.72;5008288;28;20359;-50
2022/05/27 10:18:48;;;;;;;;;;;;;;;21.64;38.86;101230.97;5025328;28;20029;-49
2022/05/27 10:21:13;;;;;;;3.90;2.35;;;;;;;22.07;38.95;101226.25;5015927;28;19913;-47
2022/05/27 10:23:46;;;;;;;9.90;2.15;;;;;;;22.36;39.08;101228.31;5033827;28;20040;-50
2022/05/27 10:26:18;;;;;;;5.30;2.08;;;;;;;22.59;38.90;101253.91;5033652;28;20484;-46
2022/05/27 10:28:43;;;;;;;9.25;2.88;;;;;;;22.72;38.60;101242.66;5033509;28;20123;-47
2022/05/27 10:31:16;;;;;;;3.10;2.20;;;;;;;22.82;38.48;101248.00;5032489;28;20772;-50
2022/05/27 10:33:49;;;;;;;6.38;2.50;;;;;;;22.88;38.11;101242.78;5012697;28;20025;-64
2022/05/27 10:36:38;;;;;;;5.10;2.03;;;;;;;22.94;38.45;101232.34;5032321;28;20390;-65
2022/05/27 10:39:22;;;;;;;5.60;2.30;;;;;;;22.96;38.51;101224.44;5048319;28;20037;-63
2022/05/27 10:42:05;;;;;;;4.50;2.70;;;;;;;23.00;38.68;101229.75;5047077;28;20033;-64
2022/05/27 10:44:45;;;;;;;2.25;2.00;;;;;;;23.02;38.59;101220.13;5026825;28;20440;-63
2022/05/27 10:47:54;;;;;;;3.38;2.22;;;;;;;23.01;38.57;101239.38;5030571;28;20033;-49
2022/05/27 10:50:32;;;;;;;4.20;2.20;;;;;;;23.00;38.50;101265.63;5017305;28;20056;-51
2022/05/27 10:53:25;;;;;;;6.68;2.10;;;;;;;22.99;38.32;101304.16;5029118;28;20118;-46
2022/05/27 10:56:21;;;;;;;2.10;1.48;;;;;;;22.97;38.65;101300.66;5041739;28;20037;-50
2022/05/27 11:02:16;;;;;;;4.18;2.05;;;;;;;22.98;38.74;101270.88;5033664;28;20493;-53
2022/05/27 11:04:53;;;;;;;;;;;;;;;23.02;38.85;101267.41;5034118;28;20116;-52
2022/05/27 11:07:38;;;;;;;6.82;2.33;;;;;;;23.08;38.88;101260.44;5050724;28;20058;-53
2022/05/27 11:10:09;;;;;;;4.47;1.88;;;;;;;23.11;39.16;101265.72;5009389;28;20444;-50
2022/05/27 11:16:18;;;;;;;4.43;1.58;;;;;;;23.13;39.20;101264.84;5036659;28;20420;-48
2022/05/27 11:18:53;;;;;;;5.35;2.38;;;;;;;23.12;39.02;101256.97;5022252;28;20041;-47
2022/05/27 11:21:36;;;;;;;2.70;1.77;;;;;;;23.10;39.60;101256.94;5033612;28;20040;-50
2022/05/27 11:24:15;;;;;;;5.30;1.85;;;;;;;23.09;39.19;101262.22;5033299;28;20029;-53
2022/05/27 11:26:41;;;;;;;1.52;1.42;;;;;;;23.08;39.01;101260.44;5050068;28;20083;-46
2022/05/27 11:29:21;;;;;;;3.37;2.17;;;;;;;23.07;38.93;101282.34;5046111;28;20362;-50
2022/05/27 11:32:02;;;;;;;3.35;1.50;;;;;;;23.02;39.42;101314.69;5016996;28;20352;-51
2022/05/27 11:34:32;;;;;;;2.53;1.73;;;;;;;22.99;39.34;101304.16;5031072;28;20028;-47
2022/05/27 11:36:57;;;;;;;1.98;1.27;;;;;;;23.04;39.61;101286.69;5017141;28;20048;-46
2022/05/27 11:39:47;;;;;;;5.72;2.15;;;;;;;23.10;39.45;101279.72;5045139;28;20029;-46
2022/05/27 11:42:30;;;;;;;1.90;1.63;;;;;;;23.14;39.37;101276.25;5048952;28;20032;-50
2022/05/27 11:45:10;;;;;;;2.25;1.50;;;;;;;23.16;39.26;101264.00;5050024;28;20128;-49
2022/05/27 11:48:13;;;;;;;1.40;1.30;;;;;;;23.19;39.36;101274.53;5029760;28;20028;-47
2022/05/27 11:51:07;;;;;;;4.93;1.75;;;;;;;23.18;39.55;101262.28;5050514;28;20060;-54
2022/05/27 11:53:49;;;;;;;3.15;1.70;;;;;;;23.15;39.41;101278.00;5032739;28;20100;-47
2022/05/27 11:56:28;;;;;;;3.33;2.13;;;;;;;23.13;39.59;101279.75;5027514;28;20113;-47
2022/05/27 11:59:01;;;;;;;1.58;1.40;;;;;;;23.17;39.45;101276.28;5031971;28;20037;-51
2022/05/27 12:01:44;;;;;;;6.10;2.78;;;;;;;23.21;39.96;101264.91;5037182;28;20044;-56
2022/05/27 12:04:31;;;;;;;1.83;1.52;;;;;;;23.22;39.62;101253.53;5067397;23;20516;-48
2022/05/27 12:06:57;;;;;;;9.80;2.17;;;;;;;23.26;39.63;101263.22;5013219;28;20498;-47
2022/05/27 12:09:30;;;;;;;1.50;1.40;;;;;;;23.28;40.18;101258.88;5046238;28;20405;-46
2022/05/27 12:12:00;;;;;;;6.47;1.88;;;;;;;23.28;40.18;101258.88;5035780;28;20072;-44
2022/05/27 12:14:38;;;;;;;1.75;1.65;;;;;;;23.26;39.39;101257.97;5033456;28;20082;-47
2022/05/27 12:17:06;;;;;;;3.63;1.13;;;;;;;23.23;39.70;101263.19;5014109;28;20056;-49
2022/05/27 12:19:34;;;;;;;5.88;2.00;;;;;;;23.23;39.78;101260.56;5032327;28;20037;-43